createdAt,value
2022-08-05T00:00:28.756Z,97878.34
2022-08-05T00:03:03.868Z,97868.13
2022-08-05T00:06:05.003Z,97868.38
2022-08-05T00:08:34.879Z,97865.97
2022-08-05T00:11:23.811Z,97860.66
2022-08-05T00:14:02.193Z,97849.31
2022-08-05T00:16:36.150Z,97850.84
2022-08-05T00:19:07.384Z,97850.66
2022-08-05T00:21:37.399Z,97850.34
2022-08-05T00:24:18.906Z,97865.00
2022-08-05T00:26:57.452Z,97871.19
2022-08-05T00:29:37.661Z,97883.00
2022-08-05T00:32:15.280Z,97877.72
2022-08-05T00:35:03.424Z,97877.78
2022-08-05T00:37:53.045Z,97875.59
2022-08-05T00:40:29.644Z,97865.94
2022-08-05T00:43:07.811Z,97864.97
2022-08-05T00:45:43.774Z,97858.72
2022-08-05T00:48:31.240Z,97862.13
2022-08-05T00:51:08.957Z,97874.22
2022-08-05T00:54:02.294Z,97885.09
2022-08-05T00:56:32.783Z,97891.75
2022-08-05T00:59:06.996Z,97900.13
2022-08-05T01:01:48.182Z,97912.81
2022-08-05T01:04:20.400Z,97920.13
2022-08-05T01:06:56.811Z,97913.81
2022-08-05T01:09:27.385Z,97912.91
2022-08-05T01:12:09.381Z,97922.66
2022-08-05T01:14:54.846Z,97930.16
2022-08-05T01:17:30.719Z,97925.47
2022-08-05T01:20:28.496Z,97922.13
2022-08-05T01:23:14.993Z,97936.00
2022-08-05T01:26:02.291Z,97940.69
2022-08-05T01:28:39.939Z,97946.59
2022-08-05T01:31:15.059Z,97953.28
2022-08-05T01:33:51.947Z,97959.81
2022-08-05T01:36:28.310Z,97955.28
2022-08-05T01:39:01.026Z,97950.63
2022-08-05T01:41:35.522Z,97951.78
2022-08-05T01:44:11.167Z,97953.97
2022-08-05T01:46:46.321Z,97961.78
2022-08-05T01:49:23.996Z,97972.72
2022-08-05T01:51:59.051Z,97973.28
2022-08-05T01:54:34.991Z,97984.13
2022-08-05T01:58:10.132Z,97996.34
2022-08-05T02:00:14.384Z,97993.22
2022-08-05T02:02:53.703Z,97980.16
2022-08-05T02:05:28.633Z,97983.56
2022-08-05T02:08:01.275Z,97995.91
2022-08-05T02:10:37.661Z,97987.81
2022-08-05T02:13:16.186Z,97987.06
2022-08-05T02:15:56.798Z,97981.28
2022-08-05T02:18:35.244Z,97977.69
2022-08-05T02:21:15.134Z,97978.50
2022-08-05T02:23:48.426Z,97979.44
2022-08-05T02:26:30.253Z,97985.16
2022-08-05T02:29:01.123Z,97985.47
2022-08-05T02:31:38.577Z,97984.41
2022-08-05T02:34:11.964Z,97982.56
2022-08-05T02:36:45.653Z,97973.88
2022-08-05T02:39:21.402Z,97975.59
2022-08-05T02:42:00.475Z,97983.25
2022-08-05T02:44:32.909Z,97978.41
2022-08-05T02:47:08.038Z,97973.56
2022-08-05T02:49:40.539Z,97984.41
2022-08-05T02:52:13.666Z,97982.94
2022-08-05T02:55:05.532Z,97988.22
2022-08-05T02:58:11.377Z,97985.22
2022-08-05T03:00:33.346Z,97992.25
2022-08-05T03:03:10.171Z,97984.81
2022-08-05T03:06:56.562Z,97982.13
2022-08-05T03:08:32.934Z,97987.38
2022-08-05T03:11:55.598Z,97988.00
2022-08-05T03:14:03.124Z,97993.28
2022-08-05T03:16:33.266Z,97991.16
2022-08-05T03:19:17.263Z,97998.44
2022-08-05T03:21:58.526Z,98014.63
2022-08-05T03:24:30.802Z,98018.38
2022-08-05T03:27:01.509Z,98023.28
2022-08-05T03:29:45.734Z,98027.63
2022-08-05T03:32:22.243Z,98030.13
2022-08-05T03:35:04.460Z,98032.94
2022-08-05T03:37:45.822Z,98032.47
2022-08-05T03:40:31.379Z,98033.38
2022-08-05T03:43:58.603Z,98034.63
2022-08-05T03:45:57.469Z,98024.59
2022-08-05T03:48:29.245Z,98016.03
2022-08-05T03:52:37.445Z,98019.44
2022-08-05T03:54:59.986Z,98030.16
2022-08-05T03:56:52.657Z,98028.13
2022-08-05T03:59:29.273Z,98027.22
2022-08-05T04:02:39.140Z,98016.63
2022-08-05T04:05:13.685Z,98005.31
2022-08-05T04:07:57.771Z,97997.69
2022-08-05T04:10:35.805Z,98002.97
2022-08-05T04:13:09.118Z,98006.25
2022-08-05T04:15:38.992Z,98012.13
2022-08-05T04:18:26.146Z,98013.84
2022-08-05T04:20:57.600Z,98015.41
2022-08-05T04:24:04.716Z,98014.94
2022-08-05T04:26:20.814Z,98021.28
2022-08-05T04:28:52.102Z,98025.94
2022-08-05T04:31:22.034Z,98041.13
2022-08-05T04:34:31.306Z,98057.22
2022-08-05T04:36:50.266Z,98071.75
2022-08-05T04:39:23.509Z,98092.19
2022-08-05T04:41:54.676Z,98103.31
2022-08-05T04:44:29.651Z,98121.59
2022-08-05T04:47:00.165Z,98126.25
2022-08-05T04:50:01.623Z,98137.03
2022-08-05T04:52:29.514Z,98144.81
2022-08-05T04:55:14.612Z,98156.22
2022-08-05T04:57:48.027Z,98157.81
2022-08-05T05:00:23.311Z,98168.63
2022-08-05T05:02:53.489Z,98176.38
2022-08-05T05:05:28.124Z,98180.69
2022-08-05T05:08:02.707Z,98173.44
2022-08-05T05:10:42.138Z,98185.25
2022-08-05T05:13:25.735Z,98201.03
2022-08-05T05:16:05.973Z,98223.00
2022-08-05T05:18:36.763Z,98233.03
2022-08-05T05:21:06.780Z,98230.28
2022-08-05T05:24:01.758Z,98212.13
2022-08-05T05:26:32.734Z,98233.75
2022-08-05T05:29:14.472Z,98232.09
2022-08-05T05:31:46.390Z,98237.25
2022-08-05T05:34:21.204Z,98246.13
2022-08-05T05:36:56.345Z,98245.94
2022-08-05T05:39:31.551Z,98244.16
2022-08-05T05:42:07.554Z,98238.75
2022-08-05T05:44:44.427Z,98246.53
2022-08-05T05:47:30.257Z,98255.59
2022-08-05T05:50:06.311Z,98262.25
2022-08-05T05:52:38.137Z,98271.78
2022-08-05T05:55:13.641Z,98275.13
2022-08-05T05:57:52.154Z,98270.78
2022-08-05T06:00:31.459Z,98273.41
2022-08-05T06:03:39.671Z,98282.25
2022-08-05T06:05:55.550Z,98291.59
2022-08-05T06:08:31.645Z,98286.31
2022-08-05T06:11:02.822Z,98295.72
2022-08-05T06:13:40.811Z,98298.94
2022-08-05T06:16:29.541Z,98297.78
2022-08-05T06:19:05.429Z,98291.72
2022-08-05T06:21:38.679Z,98292.38
2022-08-05T06:24:12.853Z,98283.22
2022-08-05T06:26:51.425Z,98280.72
2022-08-05T06:29:49.594Z,98278.84
2022-08-05T06:32:26.091Z,98277.41
2022-08-05T06:34:59.698Z,98268.84
2022-08-05T06:37:56.546Z,98265.69
2022-08-05T06:40:27.933Z,98256.84
2022-08-05T06:42:57.783Z,98259.84
2022-08-05T06:45:44.753Z,98251.66
2022-08-05T06:48:50.403Z,98263.00
2022-08-05T06:51:12.042Z,98270.56
2022-08-05T06:53:53.832Z,98271.81
2022-08-05T06:56:26.768Z,98280.13
2022-08-05T06:58:56.787Z,98274.31
2022-08-05T07:01:32.591Z,98271.22
2022-08-05T07:04:03.141Z,98274.53
2022-08-05T07:06:33.748Z,98276.25
2022-08-05T07:09:04.729Z,98280.81
2022-08-05T07:11:36.950Z,98282.19
2022-08-05T07:14:20.735Z,98289.44
2022-08-05T07:17:58.406Z,98296.06
2022-08-05T07:22:43.980Z,98304.63
2022-08-05T07:25:54.103Z,98313.19
2022-08-05T07:28:08.290Z,98320.22
2022-08-05T07:30:41.446Z,98331.88
2022-08-05T07:33:17.219Z,98321.34
2022-08-05T07:36:01.813Z,98322.41
2022-08-05T07:38:43.270Z,98324.50
2022-08-05T07:41:35.183Z,98325.78
2022-08-05T07:44:14.410Z,98308.06
2022-08-05T07:46:50.015Z,98320.44
2022-08-05T07:49:22.684Z,98328.13
2022-08-05T07:51:54.194Z,98325.38
2022-08-05T07:54:31.305Z,98323.75
2022-08-05T07:57:18.050Z,98334.44
2022-08-05T07:59:54.298Z,98322.56
2022-08-05T08:02:31.233Z,98326.09
2022-08-05T08:05:21.352Z,98313.63
2022-08-05T08:07:59.953Z,98322.72
2022-08-05T08:10:30.545Z,98322.72
2022-08-05T08:13:01.623Z,98326.66
2022-08-05T08:16:33.366Z,98322.56
2022-08-05T08:18:21.378Z,98331.00
2022-08-05T08:21:01.907Z,98330.81
2022-08-05T08:24:01.606Z,98330.69
2022-08-05T08:26:26.914Z,98333.06
2022-08-05T08:29:21.712Z,98329.97
2022-08-05T08:31:49.361Z,98324.72
2022-08-05T08:34:19.033Z,98331.06
2022-08-05T08:37:05.057Z,98325.72
2022-08-05T08:39:37.695Z,98315.84
2022-08-05T08:42:32.535Z,98311.44
2022-08-05T08:45:23.212Z,98314.50
2022-08-05T08:48:11.719Z,98310.22
2022-08-05T08:51:03.116Z,98301.28
2022-08-05T08:53:40.243Z,98300.88
2022-08-05T08:56:15.134Z,98298.22
2022-08-05T08:58:47.987Z,98295.97
2022-08-05T09:01:19.762Z,98294.56
2022-08-05T09:03:55.333Z,98290.81
2022-08-05T09:06:30.092Z,98292.16
2022-08-05T09:09:04.205Z,98282.19
2022-08-05T09:11:51.111Z,98289.88
2022-08-05T09:14:57.620Z,98274.25
2022-08-05T09:17:40.105Z,98280.47
2022-08-05T09:20:05.969Z,98285.34
2022-08-05T09:23:09.467Z,98267.38
2022-08-05T09:25:59.992Z,98261.47
2022-08-05T09:28:33.742Z,98255.09
2022-08-05T09:31:43.824Z,98259.69
2022-08-05T09:33:59.333Z,98250.72
2022-08-05T09:36:53.920Z,98241.72
2022-08-05T09:39:39.179Z,98237.59
2022-08-05T09:42:24.039Z,98237.09
2022-08-05T09:45:17.468Z,98231.94
2022-08-05T09:47:56.117Z,98233.94
2022-08-05T09:50:44.247Z,98232.44
2022-08-05T09:53:25.840Z,98235.22
2022-08-05T09:56:03.989Z,98228.31
2022-08-05T09:58:37.403Z,98228.09
2022-08-05T10:01:31.937Z,98240.13
2022-08-05T10:04:10.540Z,98224.75
2022-08-05T10:06:49.954Z,98224.63
2022-08-05T10:09:28.077Z,98230.00
2022-08-05T10:12:30.238Z,98231.72
2022-08-05T10:15:34.309Z,98239.34
2022-08-05T10:18:16.642Z,98239.28
2022-08-05T10:20:49.630Z,98236.72
2022-08-05T10:23:55.209Z,98235.66
2022-08-05T10:26:13.953Z,98224.09
2022-08-05T10:28:46.200Z,98219.41
2022-08-05T10:32:50.847Z,98214.91
2022-08-05T10:34:11.182Z,98222.56
2022-08-05T10:36:42.910Z,98217.66
2022-08-05T10:39:25.038Z,98210.66
2022-08-05T10:42:14.980Z,98211.59
2022-08-05T10:44:49.047Z,98214.47
2022-08-05T10:47:25.958Z,98218.94
2022-08-05T10:50:33.061Z,98215.22
2022-08-05T10:53:01.791Z,98214.97
2022-08-05T10:55:32.870Z,98219.34
2022-08-05T10:58:22.537Z,98210.97
2022-08-05T11:01:12.198Z,98216.56
2022-08-05T11:04:03.218Z,98209.69
2022-08-05T11:07:00.548Z,98214.72
2022-08-05T11:09:46.091Z,98214.59
2022-08-05T11:12:54.208Z,98211.78
2022-08-05T11:16:01.194Z,98213.13
2022-08-05T11:18:32.425Z,98211.22
2022-08-05T11:21:11.463Z,98213.41
2022-08-05T11:24:03.947Z,98213.81
2022-08-05T11:26:43.369Z,98215.69
2022-08-05T11:29:47.181Z,98206.63
2022-08-05T11:32:28.517Z,98210.59
2022-08-05T11:34:58.873Z,98224.94
2022-08-05T11:38:30.794Z,98213.22
2022-08-05T11:41:34.500Z,98218.56
2022-08-05T11:44:07.535Z,98218.09
2022-08-05T11:47:10.171Z,98213.78
2022-08-05T11:49:29.407Z,98212.50
2022-08-05T11:52:11.364Z,98214.81
2022-08-05T11:54:43.631Z,98209.81
2022-08-05T11:57:39.296Z,98208.59
2022-08-05T12:00:38.020Z,98207.63
2022-08-05T12:03:31.620Z,98201.72
2022-08-05T12:06:10.007Z,98195.25
2022-08-05T12:08:50.911Z,98186.56
2022-08-05T12:11:23.186Z,98193.13
2022-08-05T12:13:58.694Z,98190.84
2022-08-05T12:16:39.331Z,98194.34
2022-08-05T12:19:11.011Z,98192.50
2022-08-05T12:22:01.283Z,98188.28
2022-08-05T12:24:31.108Z,98190.94
2022-08-05T12:27:00.947Z,98180.66
2022-08-05T12:29:40.166Z,98185.47
2022-08-05T12:32:12.614Z,98180.00
2022-08-05T12:34:42.574Z,98178.97
2022-08-05T12:37:17.297Z,98190.03
2022-08-05T12:39:51.095Z,98165.06
2022-08-05T12:42:25.344Z,98175.69
2022-08-05T12:44:55.262Z,98173.41
2022-08-05T12:47:34.290Z,98177.00
2022-08-05T12:50:15.150Z,98172.34
2022-08-05T12:52:45.877Z,98174.06
2022-08-05T12:55:22.792Z,98167.97
2022-08-05T12:58:38.452Z,98178.72
2022-08-05T13:01:59.712Z,98167.78
2022-08-05T13:03:43.297Z,98173.34
2022-08-05T13:06:18.328Z,98170.00
2022-08-05T13:08:52.245Z,98166.16
2022-08-05T13:11:59.982Z,98167.41
2022-08-05T13:14:24.793Z,98168.91
2022-08-05T13:17:11.048Z,98153.31
2022-08-05T13:19:52.633Z,98157.16
2022-08-05T13:22:28.184Z,98162.53
2022-08-05T13:25:05.231Z,98153.94
2022-08-05T13:27:39.035Z,98153.78
2022-08-05T13:30:34.013Z,98150.03
2022-08-05T13:33:02.163Z,98140.25
2022-08-05T13:35:46.974Z,98136.56
2022-08-05T13:38:30.809Z,98140.84
2022-08-05T13:41:03.876Z,98140.81
2022-08-05T13:43:44.246Z,98133.28
2022-08-05T13:46:50.820Z,98137.69
2022-08-05T13:49:11.682Z,98124.31
2022-08-05T13:51:46.198Z,98130.56
2022-08-05T13:54:17.183Z,98113.97
2022-08-05T13:56:52.026Z,98108.72
2022-08-05T13:59:24.060Z,98115.38
2022-08-05T14:01:56.384Z,98117.06
2022-08-05T14:04:40.956Z,98118.28
2022-08-05T14:07:56.442Z,98112.72
2022-08-05T14:10:04.584Z,98120.13
2022-08-05T14:12:38.203Z,98107.25
2022-08-05T14:16:05.346Z,98109.91
2022-08-05T14:18:00.726Z,98105.84
2022-08-05T14:20:30.958Z,98105.38
2022-08-05T14:23:03.653Z,98106.88
2022-08-05T14:25:33.344Z,98110.91
2022-08-05T14:28:03.503Z,98105.63
2022-08-05T14:30:33.233Z,98111.63
2022-08-05T14:33:04.771Z,98106.47
2022-08-05T14:35:36.266Z,98109.84
2022-08-05T14:38:32.655Z,98116.66
2022-08-05T14:41:07.859Z,98118.06
2022-08-05T14:44:00.194Z,98120.06
2022-08-05T14:46:30.802Z,98130.69
2022-08-05T14:49:03.490Z,98130.75
2022-08-05T14:51:38.020Z,98141.28
2022-08-05T14:54:30.132Z,98131.84
2022-08-05T14:57:05.071Z,98128.53
2022-08-05T14:59:35.376Z,98133.50
2022-08-05T15:02:15.865Z,98141.69
2022-08-05T15:04:47.860Z,98140.41
2022-08-05T15:08:12.300Z,98134.97
2022-08-05T15:10:12.131Z,98142.59
2022-08-05T15:13:00.455Z,98142.53
2022-08-05T15:15:54.867Z,98152.19
2022-08-05T15:18:21.692Z,98149.28
2022-08-05T15:20:51.388Z,98164.44
2022-08-05T15:23:21.231Z,98172.81
2022-08-05T15:25:55.916Z,98195.34
2022-08-05T15:28:28.235Z,98208.31
2022-08-05T15:30:59.639Z,98211.19
2022-08-05T15:34:05.113Z,98174.75
2022-08-05T15:36:24.141Z,98138.66
2022-08-05T15:40:41.534Z,98166.56
2022-08-05T15:41:58.441Z,98182.00
2022-08-05T15:44:30.129Z,98176.19
2022-08-05T15:47:00.531Z,98179.00
2022-08-05T15:49:55.173Z,98196.13
2022-08-05T15:52:29.509Z,98196.56
2022-08-05T15:55:15.446Z,98194.84
2022-08-05T15:57:49.101Z,98203.16
2022-08-05T16:00:26.358Z,98207.91
2022-08-05T16:03:09.289Z,98202.59
2022-08-05T16:05:39.350Z,98199.25
2022-08-05T16:08:11.557Z,98201.47
2022-08-05T16:10:45.823Z,98193.22
2022-08-05T16:13:23.590Z,98195.59
2022-08-05T16:15:53.987Z,98207.97
2022-08-05T16:18:28.058Z,98201.91
2022-08-05T16:21:00.074Z,98209.56
2022-08-05T16:23:53.167Z,98212.84
2022-08-05T16:26:26.535Z,98215.94
2022-08-05T16:28:59.328Z,98220.72
2022-08-05T16:31:56.089Z,98220.63
2022-08-05T16:34:18.787Z,98218.44
2022-08-05T16:36:48.579Z,98229.34
2022-08-05T16:39:18.812Z,98249.19
2022-08-05T16:42:13.585Z,98254.50
2022-08-05T16:44:42.735Z,98256.06
2022-08-05T16:47:28.682Z,98247.97
2022-08-05T16:50:03.765Z,98245.94
2022-08-05T16:52:33.814Z,98247.19
2022-08-05T16:55:04.191Z,98247.28
2022-08-05T16:57:48.631Z,98254.06
2022-08-05T17:00:34.570Z,98259.03
2022-08-05T17:03:09.295Z,98253.41
2022-08-05T17:05:53.892Z,98264.38
2022-08-05T17:08:36.041Z,98261.06
2022-08-05T17:11:18.748Z,98270.38
2022-08-05T17:13:49.202Z,98271.81
2022-08-05T17:16:32.842Z,98269.50
2022-08-05T17:19:03.642Z,98265.63
2022-08-05T17:21:37.749Z,98261.97
2022-08-05T17:24:28.123Z,98266.81
2022-08-05T17:27:01.196Z,98273.19
2022-08-05T17:29:33.485Z,98271.03
2022-08-05T17:32:17.093Z,98272.31
2022-08-05T17:34:49.263Z,98276.19
2022-08-05T17:37:39.800Z,98284.97
2022-08-05T17:40:12.769Z,98282.72
2022-08-05T17:42:51.882Z,98290.28
2022-08-05T17:45:37.909Z,98293.28
2022-08-05T17:48:11.264Z,98299.22
2022-08-05T17:50:41.029Z,98297.50
2022-08-05T17:53:11.086Z,98304.19
2022-08-05T17:55:41.486Z,98302.38
2022-08-05T17:58:13.530Z,98299.78
2022-08-05T18:00:47.438Z,98312.50
2022-08-05T18:06:15.309Z,98327.63
2022-08-05T18:08:52.443Z,98323.78
2022-08-05T18:11:32.922Z,98333.72
2022-08-05T18:14:07.347Z,98340.28
2022-08-05T18:16:47.023Z,98347.78
2022-08-05T18:19:25.832Z,98361.19
2022-08-05T18:22:08.806Z,98359.50
2022-08-05T18:24:41.086Z,98356.47
2022-08-05T18:27:12.482Z,98361.91
2022-08-05T18:29:42.393Z,98365.22
2022-08-05T18:32:20.282Z,98360.91
2022-08-05T18:34:52.536Z,98364.84
2022-08-05T18:37:34.458Z,98370.19
2022-08-05T18:40:34.071Z,98380.59
2022-08-05T18:43:01.048Z,98391.31
2022-08-05T18:45:41.326Z,98402.66
2022-08-05T18:48:11.984Z,98417.09
2022-08-05T18:52:06.151Z,98418.19
2022-08-05T18:54:05.657Z,98424.41
2022-08-05T18:56:35.348Z,98431.75
2022-08-05T18:59:41.988Z,98435.16
2022-08-05T19:01:57.909Z,98442.94
2022-08-05T19:04:29.470Z,98444.66
2022-08-05T19:07:01.725Z,98448.06
2022-08-05T19:09:39.037Z,98454.13
2022-08-05T19:12:11.430Z,98452.56
2022-08-05T19:15:00.644Z,98452.56
2022-08-05T19:17:59.605Z,98453.94
2022-08-05T19:20:21.818Z,98463.13
2022-08-05T19:22:56.031Z,98466.72
2022-08-05T19:25:30.098Z,98464.84
2022-08-05T19:28:00.920Z,98462.66
2022-08-05T19:30:30.657Z,98470.44
2022-08-05T19:33:00.323Z,98483.16
2022-08-05T19:35:55.915Z,98504.88
2022-08-05T19:38:26.697Z,98500.22
2022-08-05T19:40:56.550Z,98499.75
2022-08-05T19:44:04.208Z,98498.38
2022-08-05T19:46:16.726Z,98515.25
2022-08-05T19:49:01.110Z,98522.69
2022-08-05T19:52:04.551Z,98529.06
2022-08-05T19:54:30.946Z,98519.31
2022-08-05T19:57:02.140Z,98513.06
2022-08-05T19:59:56.102Z,98521.41
2022-08-05T20:02:22.827Z,98524.03
2022-08-05T20:04:52.839Z,98529.47
2022-08-05T20:07:48.237Z,98533.19
2022-08-05T20:10:14.984Z,98545.72
2022-08-05T20:12:46.408Z,98547.31
2022-08-05T20:15:48.177Z,98539.81
2022-08-05T20:18:10.602Z,98542.13
2022-08-05T20:20:59.859Z,98545.28
2022-08-05T20:23:40.656Z,98552.38
2022-08-05T20:26:24.756Z,98554.66
2022-08-05T20:29:00.502Z,98556.03
2022-08-05T20:31:43.112Z,98571.69
2022-08-05T20:34:21.035Z,98574.78
2022-08-05T20:36:50.757Z,98576.91
2022-08-05T20:39:21.054Z,98551.09
2022-08-05T20:41:53.527Z,98568.50
2022-08-05T20:44:31.128Z,98580.84
2022-08-05T20:47:03.211Z,98587.13
2022-08-05T20:49:39.450Z,98589.91
2022-08-05T20:52:12.325Z,98569.38
2022-08-05T20:54:58.903Z,98606.16
2022-08-05T20:57:43.212Z,98620.22
2022-08-05T21:00:35.048Z,98618.78
2022-08-05T21:03:08.199Z,98614.88
2022-08-05T21:05:54.250Z,98617.78
2022-08-05T21:08:26.604Z,98622.81
2022-08-05T21:11:10.073Z,98627.72
2022-08-05T21:13:55.612Z,98632.63
2022-08-05T21:16:29.713Z,98636.97
2022-08-05T21:19:01.081Z,98643.78
2022-08-05T21:21:44.216Z,98648.09
2022-08-05T21:24:20.473Z,98661.50
2022-08-05T21:26:53.517Z,98666.50
2022-08-05T21:29:31.687Z,98665.84
2022-08-05T21:32:02.169Z,98661.72
2022-08-05T21:34:32.940Z,98659.13
2022-08-05T21:37:05.220Z,98673.97
2022-08-05T21:39:40.393Z,98683.09
2022-08-05T21:42:30.620Z,98692.56
2022-08-05T21:45:03.507Z,98691.09
2022-08-05T21:47:55.656Z,98694.13
2022-08-05T21:50:23.774Z,98687.66
2022-08-05T21:52:53.547Z,98682.00
2022-08-05T21:55:42.891Z,98680.00
2022-08-05T21:58:13.289Z,98686.25
2022-08-05T22:00:51.453Z,98701.53
2022-08-05T22:03:48.905Z,98695.69
2022-08-05T22:06:11.299Z,98714.31
2022-08-05T22:08:42.534Z,98712.41
2022-08-05T22:11:15.739Z,98715.72
2022-08-05T22:14:19.653Z,98710.94
2022-08-05T22:16:42.053Z,98707.03
2022-08-05T22:20:00.917Z,98713.72
2022-08-05T22:22:11.420Z,98719.38
2022-08-05T22:24:55.859Z,98727.53
2022-08-05T22:28:10.455Z,98739.19
2022-08-05T22:30:34.919Z,98745.44
2022-08-05T22:33:15.484Z,98741.78
2022-08-05T22:35:47.982Z,98751.59
2022-08-05T22:38:19.767Z,98755.59
2022-08-05T22:40:54.889Z,98756.72
2022-08-05T22:43:37.091Z,98771.41
2022-08-05T22:46:12.065Z,98772.69
2022-08-05T22:48:53.179Z,98774.16
2022-08-05T22:52:02.707Z,98778.94
2022-08-05T22:54:12.641Z,98795.94
2022-08-05T22:56:42.941Z,98783.03
2022-08-05T22:59:43.784Z,98796.38
2022-08-05T23:02:04.418Z,98798.53
2022-08-05T23:04:39.684Z,98802.06
2022-08-05T23:07:09.908Z,98796.28
2022-08-05T23:09:57.579Z,98802.34
2022-08-05T23:12:32.604Z,98797.06
2022-08-05T23:15:08.456Z,98798.00
2022-08-05T23:18:02.396Z,98808.75
2022-08-05T23:20:32.390Z,98794.59
2022-08-05T23:23:03.527Z,98807.91
2022-08-05T23:25:51.305Z,98798.31
2022-08-05T23:28:29.041Z,98799.50
2022-08-05T23:31:02.267Z,98803.91
2022-08-05T23:34:05.505Z,98818.16
2022-08-05T23:36:44.359Z,98820.63
2022-08-05T23:39:16.581Z,98830.03
2022-08-05T23:41:53.877Z,98831.66
2022-08-05T23:44:27.903Z,98841.50
2022-08-05T23:47:02.634Z,98845.53
2022-08-05T23:49:45.548Z,98847.84
2022-08-05T23:52:31.681Z,98841.13
2022-08-05T23:55:05.473Z,98845.97
2022-08-05T23:57:37.639Z,98853.09
